sensor_id;sensor_type;location;lat;lon;timestamp;temperature;humidity
15615;DHT22;7907;51.368;6.730;2022-12-18T00:01:15;-2.30;99.90
15615;DHT22;7907;51.368;6.730;2022-12-18T00:03:43;-2.40;99.90
15615;DHT22;7907;51.368;6.730;2022-12-18T00:06:10;-2.30;99.90
15615;DHT22;7907;51.368;6.730;2022-12-18T00:08:37;-2.40;99.90
15615;DHT22;7907;51.368;6.730;2022-12-18T00:11:05;-2.40;99.90
15615;DHT22;7907;51.368;6.730;2022-12-18T00:13:33;-2.40;99.90
15615;DHT22;7907;51.368;6.730;2022-12-18T00:16:03;-2.40;99.90
15615;DHT22;7907;51.368;6.730;2022-12-18T00:18:31;-2.40;99.90
15615;DHT22;7907;51.368;6.730;2022-12-18T00:20:59;-2.50;99.90
15615;DHT22;7907;51.368;6.730;2022-12-18T00:23:27;-2.40;99.90
15615;DHT22;7907;51.368;6.730;2022-12-18T00:25:54;-2.40;99.90
15615;DHT22;7907;51.368;6.730;2022-12-18T00:28:21;-2.40;99.90
15615;DHT22;7907;51.368;6.730;2022-12-18T00:30:48;-2.40;99.90
15615;DHT22;7907;51.368;6.730;2022-12-18T00:33:18;-2.40;99.90
15615;DHT22;7907;51.368;6.730;2022-12-18T00:35:45;-2.50;99.90
15615;DHT22;7907;51.368;6.730;2022-12-18T00:38:12;-2.50;99.90
15615;DHT22;7907;51.368;6.730;2022-12-18T00:40:39;-2.50;99.90
15615;DHT22;7907;51.368;6.730;2022-12-18T00:43:06;-2.50;99.90
15615;DHT22;7907;51.368;6.730;2022-12-18T00:45:32;-2.50;99.90
15615;DHT22;7907;51.368;6.730;2022-12-18T00:47:59;-2.50;99.90
15615;DHT22;7907;51.368;6.730;2022-12-18T00:50:28;-2.50;99.90
15615;DHT22;7907;51.368;6.730;2022-12-18T00:52:55;-2.50;99.90
15615;DHT22;7907;51.368;6.730;2022-12-18T00:55:22;-2.50;99.90
15615;DHT22;7907;51.368;6.730;2022-12-18T00:57:50;-2.60;99.90
15615;DHT22;7907;51.368;6.730;2022-12-18T01:00:18;-2.50;99.90
15615;DHT22;7907;51.368;6.730;2022-12-18T01:02:45;-2.50;99.90
15615;DHT22;7907;51.368;6.730;2022-12-18T01:05:13;-2.50;99.90
15615;DHT22;7907;51.368;6.730;2022-12-18T01:07:42;-2.60;99.90
15615;DHT22;7907;51.368;6.730;2022-12-18T01:10:11;-2.60;99.90
15615;DHT22;7907;51.368;6.730;2022-12-18T01:12:39;-2.60;99.90
15615;DHT22;7907;51.368;6.730;2022-12-18T01:15:07;-2.60;99.90
15615;DHT22;7907;51.368;6.730;2022-12-18T01:17:34;-2.60;99.90
15615;DHT22;7907;51.368;6.730;2022-12-18T01:20:01;-2.60;99.90
15615;DHT22;7907;51.368;6.730;2022-12-18T01:22:28;-2.60;99.90
15615;DHT22;7907;51.368;6.730;2022-12-18T01:24:57;-2.60;99.90
15615;DHT22;7907;51.368;6.730;2022-12-18T01:27:24;-2.50;99.90
15615;DHT22;7907;51.368;6.730;2022-12-18T01:29:51;-2.60;99.90
15615;DHT22;7907;51.368;6.730;2022-12-18T01:32:18;-2.60;99.90
15615;DHT22;7907;51.368;6.730;2022-12-18T01:34:46;-2.60;99.90
15615;DHT22;7907;51.368;6.730;2022-12-18T01:37:13;-2.60;99.90
15615;DHT22;7907;51.368;6.730;2022-12-18T01:39:40;-2.60;99.90
15615;DHT22;7907;51.368;6.730;2022-12-18T01:42:13;-2.60;99.90
15615;DHT22;7907;51.368;6.730;2022-12-18T01:45:04;-2.60;99.90
15615;DHT22;7907;51.368;6.730;2022-12-18T01:47:36;-2.60;99.90
15615;DHT22;7907;51.368;6.730;2022-12-18T01:50:07;-2.60;99.90
15615;DHT22;7907;51.368;6.730;2022-12-18T01:52:36;-2.60;99.90
15615;DHT22;7907;51.368;6.730;2022-12-18T01:55:07;-2.60;99.90
15615;DHT22;7907;51.368;6.730;2022-12-18T01:57:37;-2.60;99.90
15615;DHT22;7907;51.368;6.730;2022-12-18T02:00:07;-2.60;99.90
15615;DHT22;7907;51.368;6.730;2022-12-18T02:02:35;-2.60;99.90
15615;DHT22;7907;51.368;6.730;2022-12-18T02:05:03;-2.60;99.90
15615;DHT22;7907;51.368;6.730;2022-12-18T02:07:38;-2.60;99.90
15615;DHT22;7907;51.368;6.730;2022-12-18T02:10:15;-2.60;99.90
15615;DHT22;7907;51.368;6.730;2022-12-18T02:12:52;-2.60;99.90
15615;DHT22;7907;51.368;6.730;2022-12-18T02:15:27;-2.60;99.90
15615;DHT22;7907;51.368;6.730;2022-12-18T02:18:02;-2.60;99.90
15615;DHT22;7907;51.368;6.730;2022-12-18T02:20:35;-2.60;99.90
15615;DHT22;7907;51.368;6.730;2022-12-18T02:23:09;-2.60;99.90
15615;DHT22;7907;51.368;6.730;2022-12-18T02:26:00;-2.60;99.90
15615;DHT22;7907;51.368;6.730;2022-12-18T02:28:33;-2.60;99.90
15615;DHT22;7907;51.368;6.730;2022-12-18T02:31:03;-2.60;99.90
15615;DHT22;7907;51.368;6.730;2022-12-18T02:33:32;-2.60;99.90
15615;DHT22;7907;51.368;6.730;2022-12-18T02:36:00;-2.60;99.90
15615;DHT22;7907;51.368;6.730;2022-12-18T02:38:29;-2.60;99.90
15615;DHT22;7907;51.368;6.730;2022-12-18T02:40:59;-2.60;99.90
15615;DHT22;7907;51.368;6.730;2022-12-18T02:43:27;-2.60;99.90
15615;DHT22;7907;51.368;6.730;2022-12-18T02:45:56;-2.60;99.90
15615;DHT22;7907;51.368;6.730;2022-12-18T02:48:26;-2.60;99.90
15615;DHT22;7907;51.368;6.730;2022-12-18T02:51:00;-2.50;99.90
15615;DHT22;7907;51.368;6.730;2022-12-18T02:53:36;-2.60;99.90
15615;DHT22;7907;51.368;6.730;2022-12-18T02:56:09;-2.50;99.90
15615;DHT22;7907;51.368;6.730;2022-12-18T02:58:45;-2.50;99.90
15615;DHT22;7907;51.368;6.730;2022-12-18T03:01:15;-2.50;99.90
15615;DHT22;7907;51.368;6.730;2022-12-18T03:03:48;-2.50;99.90
15615;DHT22;7907;51.368;6.730;2022-12-18T03:06:23;-2.50;99.90
15615;DHT22;7907;51.368;6.730;2022-12-18T03:08:54;-2.50;99.90
15615;DHT22;7907;51.368;6.730;2022-12-18T03:11:26;-2.60;99.90
15615;DHT22;7907;51.368;6.730;2022-12-18T03:14:09;-2.60;99.90
15615;DHT22;7907;51.368;6.730;2022-12-18T03:16:37;-2.50;99.90
15615;DHT22;7907;51.368;6.730;2022-12-18T03:19:09;-2.50;99.90
15615;DHT22;7907;51.368;6.730;2022-12-18T03:21:43;-2.50;99.90
15615;DHT22;7907;51.368;6.730;2022-12-18T03:24:11;-2.50;99.90
15615;DHT22;7907;51.368;6.730;2022-12-18T03:26:42;-2.50;99.90
15615;DHT22;7907;51.368;6.730;2022-12-18T03:29:14;-2.50;99.90
15615;DHT22;7907;51.368;6.730;2022-12-18T03:31:48;-2.50;99.90
15615;DHT22;7907;51.368;6.730;2022-12-18T03:34:19;-2.50;99.90
15615;DHT22;7907;51.368;6.730;2022-12-18T03:36:49;-2.50;99.90
15615;DHT22;7907;51.368;6.730;2022-12-18T03:39:16;-2.50;99.90
15615;DHT22;7907;51.368;6.730;2022-12-18T03:41:48;-2.50;99.90
15615;DHT22;7907;51.368;6.730;2022-12-18T03:44:23;-2.40;99.90
15615;DHT22;7907;51.368;6.730;2022-12-18T03:46:59;-2.40;99.90
15615;DHT22;7907;51.368;6.730;2022-12-18T03:49:35;-2.40;99.90
15615;DHT22;7907;51.368;6.730;2022-12-18T03:52:06;-2.40;99.90
15615;DHT22;7907;51.368;6.730;2022-12-18T03:54:44;-2.40;99.90
15615;DHT22;7907;51.368;6.730;2022-12-18T03:57:17;-2.30;99.90
15615;DHT22;7907;51.368;6.730;2022-12-18T03:59:48;-2.40;99.90
15615;DHT22;7907;51.368;6.730;2022-12-18T04:02:17;-2.30;99.90
15615;DHT22;7907;51.368;6.730;2022-12-18T04:04:46;-2.30;99.90
15615;DHT22;7907;51.368;6.730;2022-12-18T04:07:15;-2.30;99.90
15615;DHT22;7907;51.368;6.730;2022-12-18T04:09:43;-2.30;99.90
15615;DHT22;7907;51.368;6.730;2022-12-18T04:12:13;-2.30;99.90
15615;DHT22;7907;51.368;6.730;2022-12-18T04:14:40;-2.20;99.90
15615;DHT22;7907;51.368;6.730;2022-12-18T04:17:10;-2.30;99.90
15615;DHT22;7907;51.368;6.730;2022-12-18T04:19:37;-2.30;99.90
15615;DHT22;7907;51.368;6.730;2022-12-18T04:22:04;-2.30;99.90
15615;DHT22;7907;51.368;6.730;2022-12-18T04:24:31;-2.30;99.90
15615;DHT22;7907;51.368;6.730;2022-12-18T04:27:04;-2.30;99.90
15615;DHT22;7907;51.368;6.730;2022-12-18T04:29:33;-2.30;99.90
15615;DHT22;7907;51.368;6.730;2022-12-18T04:32:00;-2.30;99.90
15615;DHT22;7907;51.368;6.730;2022-12-18T04:34:27;-2.30;99.90
15615;DHT22;7907;51.368;6.730;2022-12-18T04:36:54;-2.30;99.90
15615;DHT22;7907;51.368;6.730;2022-12-18T04:39:21;-2.30;99.90
15615;DHT22;7907;51.368;6.730;2022-12-18T04:41:48;-2.30;99.90
15615;DHT22;7907;51.368;6.730;2022-12-18T04:44:15;-2.30;99.90
15615;DHT22;7907;51.368;6.730;2022-12-18T04:46:44;-2.30;99.90
15615;DHT22;7907;51.368;6.730;2022-12-18T04:49:11;-2.30;99.90
15615;DHT22;7907;51.368;6.730;2022-12-18T04:51:38;-2.30;99.90
15615;DHT22;7907;51.368;6.730;2022-12-18T04:54:05;-2.40;99.90
15615;DHT22;7907;51.368;6.730;2022-12-18T04:56:32;-2.40;99.90
15615;DHT22;7907;51.368;6.730;2022-12-18T04:58:59;-2.40;99.90
15615;DHT22;7907;51.368;6.730;2022-12-18T05:01:27;-2.40;99.90
15615;DHT22;7907;51.368;6.730;2022-12-18T05:03:55;-2.40;99.90
15615;DHT22;7907;51.368;6.730;2022-12-18T05:06:22;-2.40;99.90
15615;DHT22;7907;51.368;6.730;2022-12-18T05:08:49;-2.40;99.90
15615;DHT22;7907;51.368;6.730;2022-12-18T05:11:16;-2.50;99.90
15615;DHT22;7907;51.368;6.730;2022-12-18T05:13:44;-2.50;99.90
15615;DHT22;7907;51.368;6.730;2022-12-18T05:16:12;-2.50;99.90
15615;DHT22;7907;51.368;6.730;2022-12-18T05:18:39;-2.50;99.90
15615;DHT22;7907;51.368;6.730;2022-12-18T05:21:08;-2.50;99.90
15615;DHT22;7907;51.368;6.730;2022-12-18T05:23:35;-2.50;99.90
15615;DHT22;7907;51.368;6.730;2022-12-18T05:26:04;-2.60;99.90
15615;DHT22;7907;51.368;6.730;2022-12-18T05:28:33;-2.60;99.90
15615;DHT22;7907;51.368;6.730;2022-12-18T05:31:01;-2.60;99.90
15615;DHT22;7907;51.368;6.730;2022-12-18T05:33:30;-2.60;99.90
15615;DHT22;7907;51.368;6.730;2022-12-18T05:35:59;-2.60;99.90
15615;DHT22;7907;51.368;6.730;2022-12-18T05:38:28;-2.60;99.90
15615;DHT22;7907;51.368;6.730;2022-12-18T05:40:56;-2.60;99.90
15615;DHT22;7907;51.368;6.730;2022-12-18T05:43:24;-2.60;99.90
15615;DHT22;7907;51.368;6.730;2022-12-18T05:45:52;-2.60;99.90
15615;DHT22;7907;51.368;6.730;2022-12-18T05:48:20;-2.60;99.90
15615;DHT22;7907;51.368;6.730;2022-12-18T05:50:48;-2.60;99.90
15615;DHT22;7907;51.368;6.730;2022-12-18T05:53:17;-2.60;99.90
15615;DHT22;7907;51.368;6.730;2022-12-18T05:55:47;-2.60;99.90
15615;DHT22;7907;51.368;6.730;2022-12-18T05:58:15;-2.50;99.90
15615;DHT22;7907;51.368;6.730;2022-12-18T06:00:48;-2.50;99.90
15615;DHT22;7907;51.368;6.730;2022-12-18T06:03:15;-2.50;99.90
15615;DHT22;7907;51.368;6.730;2022-12-18T06:05:44;-2.50;99.90
15615;DHT22;7907;51.368;6.730;2022-12-18T06:08:12;-2.50;99.90
15615;DHT22;7907;51.368;6.730;2022-12-18T06:10:39;-2.50;99.90
15615;DHT22;7907;51.368;6.730;2022-12-18T06:13:08;-2.50;99.90
15615;DHT22;7907;51.368;6.730;2022-12-18T06:15:36;-2.50;99.90
15615;DHT22;7907;51.368;6.730;2022-12-18T06:18:04;-2.50;99.90
15615;DHT22;7907;51.368;6.730;2022-12-18T06:20:31;-2.50;99.90
15615;DHT22;7907;51.368;6.730;2022-12-18T06:22:58;-2.50;99.90
15615;DHT22;7907;51.368;6.730;2022-12-18T06:25:25;-2.50;99.90
15615;DHT22;7907;51.368;6.730;2022-12-18T06:27:52;-2.50;99.90
15615;DHT22;7907;51.368;6.730;2022-12-18T06:30:20;-2.40;99.90
15615;DHT22;7907;51.368;6.730;2022-12-18T06:32:48;-2.50;99.90
15615;DHT22;7907;51.368;6.730;2022-12-18T06:35:15;-2.50;99.90
15615;DHT22;7907;51.368;6.730;2022-12-18T06:37:42;-2.50;99.90
15615;DHT22;7907;51.368;6.730;2022-12-18T06:40:10;-2.50;99.90
15615;DHT22;7907;51.368;6.730;2022-12-18T06:42:37;-2.50;99.90
15615;DHT22;7907;51.368;6.730;2022-12-18T06:45:05;-2.50;99.90
15615;DHT22;7907;51.368;6.730;2022-12-18T06:47:34;-2.50;99.90
15615;DHT22;7907;51.368;6.730;2022-12-18T06:50:01;-2.50;99.90
15615;DHT22;7907;51.368;6.730;2022-12-18T06:52:28;-2.50;99.90
15615;DHT22;7907;51.368;6.730;2022-12-18T06:54:55;-2.50;99.90
15615;DHT22;7907;51.368;6.730;2022-12-18T06:57:22;-2.50;99.90
15615;DHT22;7907;51.368;6.730;2022-12-18T06:59:49;-2.50;99.90
15615;DHT22;7907;51.368;6.730;2022-12-18T07:02:16;-2.50;99.90
15615;DHT22;7907;51.368;6.730;2022-12-18T07:04:44;-2.50;99.90
15615;DHT22;7907;51.368;6.730;2022-12-18T07:07:11;-2.50;99.90
15615;DHT22;7907;51.368;6.730;2022-12-18T07:09:38;-2.50;99.90
15615;DHT22;7907;51.368;6.730;2022-12-18T07:12:05;-2.50;99.90
15615;DHT22;7907;51.368;6.730;2022-12-18T07:14:33;-2.50;99.90
15615;DHT22;7907;51.368;6.730;2022-12-18T07:17:00;-2.50;99.90
15615;DHT22;7907;51.368;6.730;2022-12-18T07:19:27;-2.50;99.90
15615;DHT22;7907;51.368;6.730;2022-12-18T07:21:57;-2.50;99.90
15615;DHT22;7907;51.368;6.730;2022-12-18T07:24:24;-2.50;99.90
15615;DHT22;7907;51.368;6.730;2022-12-18T07:26:51;-2.50;99.90
15615;DHT22;7907;51.368;6.730;2022-12-18T07:29:18;-2.50;99.90
15615;DHT22;7907;51.368;6.730;2022-12-18T07:31:45;-2.50;99.90
15615;DHT22;7907;51.368;6.730;2022-12-18T07:34:13;-2.50;99.90
15615;DHT22;7907;51.368;6.730;2022-12-18T07:36:41;-2.50;99.90
15615;DHT22;7907;51.368;6.730;2022-12-18T07:39:10;-2.50;99.90
15615;DHT22;7907;51.368;6.730;2022-12-18T07:41:37;-2.50;99.90
15615;DHT22;7907;51.368;6.730;2022-12-18T07:44:09;-2.50;99.90
15615;DHT22;7907;51.368;6.730;2022-12-18T07:46:36;-2.50;99.90
15615;DHT22;7907;51.368;6.730;2022-12-18T07:49:03;-2.40;99.90
15615;DHT22;7907;51.368;6.730;2022-12-18T07:51:30;-2.50;99.90
15615;DHT22;7907;51.368;6.730;2022-12-18T07:53:58;-2.40;99.90
15615;DHT22;7907;51.368;6.730;2022-12-18T07:56:26;-2.40;99.90
15615;DHT22;7907;51.368;6.730;2022-12-18T07:58:54;-2.40;99.90
15615;DHT22;7907;51.368;6.730;2022-12-18T08:01:21;-2.40;99.90
15615;DHT22;7907;51.368;6.730;2022-12-18T08:03:48;-2.30;99.90
15615;DHT22;7907;51.368;6.730;2022-12-18T08:06:15;-2.30;99.90
15615;DHT22;7907;51.368;6.730;2022-12-18T08:08:42;-2.20;99.90
15615;DHT22;7907;51.368;6.730;2022-12-18T08:11:09;-2.30;99.90
15615;DHT22;7907;51.368;6.730;2022-12-18T08:13:38;-2.20;99.90
15615;DHT22;7907;51.368;6.730;2022-12-18T08:16:07;-2.10;99.90
15615;DHT22;7907;51.368;6.730;2022-12-18T08:18:35;-2.10;99.90
15615;DHT22;7907;51.368;6.730;2022-12-18T08:21:08;-2.00;99.90
15615;DHT22;7907;51.368;6.730;2022-12-18T08:23:36;-2.00;99.90
15615;DHT22;7907;51.368;6.730;2022-12-18T08:26:03;-1.90;99.90
15615;DHT22;7907;51.368;6.730;2022-12-18T08:28:30;-1.90;99.90
15615;DHT22;7907;51.368;6.730;2022-12-18T08:30:58;-1.80;99.90
15615;DHT22;7907;51.368;6.730;2022-12-18T08:33:26;-1.70;99.90
15615;DHT22;7907;51.368;6.730;2022-12-18T08:35:53;-1.60;99.90
15615;DHT22;7907;51.368;6.730;2022-12-18T08:38:20;-1.60;99.90
15615;DHT22;7907;51.368;6.730;2022-12-18T08:40:48;-1.50;99.90
15615;DHT22;7907;51.368;6.730;2022-12-18T08:43:15;-1.40;99.90
15615;DHT22;7907;51.368;6.730;2022-12-18T08:46:01;-1.30;99.90
15615;DHT22;7907;51.368;6.730;2022-12-18T08:48:29;-1.30;99.90
15615;DHT22;7907;51.368;6.730;2022-12-18T08:50:57;-1.20;99.90
15615;DHT22;7907;51.368;6.730;2022-12-18T08:53:24;-1.10;99.90
15615;DHT22;7907;51.368;6.730;2022-12-18T08:55:52;-1.00;99.90
15615;DHT22;7907;51.368;6.730;2022-12-18T08:58:19;-1.00;99.90
15615;DHT22;7907;51.368;6.730;2022-12-18T09:00:46;-1.00;99.90
15615;DHT22;7907;51.368;6.730;2022-12-18T09:03:16;-0.90;99.90
15615;DHT22;7907;51.368;6.730;2022-12-18T09:05:43;-0.80;99.90
15615;DHT22;7907;51.368;6.730;2022-12-18T09:08:12;-0.70;99.90
15615;DHT22;7907;51.368;6.730;2022-12-18T09:10:42;-0.80;99.90
15615;DHT22;7907;51.368;6.730;2022-12-18T09:13:10;-0.70;99.90
15615;DHT22;7907;51.368;6.730;2022-12-18T09:15:41;-0.60;99.90
15615;DHT22;7907;51.368;6.730;2022-12-18T09:18:08;-0.60;99.90
15615;DHT22;7907;51.368;6.730;2022-12-18T09:20:38;-0.60;99.90
15615;DHT22;7907;51.368;6.730;2022-12-18T09:23:06;-0.50;99.90
15615;DHT22;7907;51.368;6.730;2022-12-18T09:25:33;-0.50;99.90
15615;DHT22;7907;51.368;6.730;2022-12-18T09:28:01;-0.50;99.90
15615;DHT22;7907;51.368;6.730;2022-12-18T09:30:28;-0.40;99.90
15615;DHT22;7907;51.368;6.730;2022-12-18T09:32:55;-0.30;99.90
15615;DHT22;7907;51.368;6.730;2022-12-18T09:35:22;-0.30;99.90
15615;DHT22;7907;51.368;6.730;2022-12-18T09:37:51;-0.20;99.90
15615;DHT22;7907;51.368;6.730;2022-12-18T09:40:20;-0.20;99.90
15615;DHT22;7907;51.368;6.730;2022-12-18T09:42:52;-0.10;99.90
15615;DHT22;7907;51.368;6.730;2022-12-18T09:45:21;-0.10;99.90
15615;DHT22;7907;51.368;6.730;2022-12-18T09:47:49;0.00;99.90
15615;DHT22;7907;51.368;6.730;2022-12-18T09:50:26;0.10;99.90
15615;DHT22;7907;51.368;6.730;2022-12-18T09:52:58;0.10;99.90
15615;DHT22;7907;51.368;6.730;2022-12-18T09:55:32;0.10;99.90
15615;DHT22;7907;51.368;6.730;2022-12-18T09:58:04;0.10;99.90
15615;DHT22;7907;51.368;6.730;2022-12-18T10:00:33;0.30;99.90
15615;DHT22;7907;51.368;6.730;2022-12-18T10:03:03;0.30;99.90
15615;DHT22;7907;51.368;6.730;2022-12-18T10:05:39;0.30;99.90
15615;DHT22;7907;51.368;6.730;2022-12-18T10:08:16;0.40;99.90
15615;DHT22;7907;51.368;6.730;2022-12-18T10:10:50;0.50;99.90
15615;DHT22;7907;51.368;6.730;2022-12-18T10:13:24;0.50;99.90
15615;DHT22;7907;51.368;6.730;2022-12-18T10:16:05;0.50;99.90
15615;DHT22;7907;51.368;6.730;2022-12-18T10:18:42;0.60;99.90
15615;DHT22;7907;51.368;6.730;2022-12-18T10:21:15;0.70;99.90
15615;DHT22;7907;51.368;6.730;2022-12-18T10:23:51;0.80;99.90
15615;DHT22;7907;51.368;6.730;2022-12-18T10:26:22;0.80;99.90
15615;DHT22;7907;51.368;6.730;2022-12-18T10:28:49;0.90;99.90
15615;DHT22;7907;51.368;6.730;2022-12-18T10:31:20;1.00;99.90
15615;DHT22;7907;51.368;6.730;2022-12-18T10:33:47;1.10;99.90
15615;DHT22;7907;51.368;6.730;2022-12-18T10:36:15;1.10;99.90
15615;DHT22;7907;51.368;6.730;2022-12-18T10:38:42;1.20;99.90
15615;DHT22;7907;51.368;6.730;2022-12-18T10:41:24;1.30;99.90
15615;DHT22;7907;51.368;6.730;2022-12-18T10:44:11;1.40;99.90
15615;DHT22;7907;51.368;6.730;2022-12-18T10:46:39;1.50;99.90
15615;DHT22;7907;51.368;6.730;2022-12-18T10:49:18;1.60;99.90
15615;DHT22;7907;51.368;6.730;2022-12-18T10:51:46;1.60;99.90
15615;DHT22;7907;51.368;6.730;2022-12-18T10:54:16;1.70;99.90
15615;DHT22;7907;51.368;6.730;2022-12-18T10:56:46;1.80;99.90
15615;DHT22;7907;51.368;6.730;2022-12-18T10:59:15;1.80;99.90
15615;DHT22;7907;51.368;6.730;2022-12-18T11:01:50;1.90;99.90
15615;DHT22;7907;51.368;6.730;2022-12-18T11:04:20;2.00;99.90
15615;DHT22;7907;51.368;6.730;2022-12-18T11:06:58;2.00;99.90
15615;DHT22;7907;51.368;6.730;2022-12-18T11:09:27;2.10;99.90
15615;DHT22;7907;51.368;6.730;2022-12-18T11:11:57;2.10;99.90
15615;DHT22;7907;51.368;6.730;2022-12-18T11:14:27;2.20;99.90
15615;DHT22;7907;51.368;6.730;2022-12-18T11:16:55;2.20;99.90
15615;DHT22;7907;51.368;6.730;2022-12-18T11:19:30;2.30;99.90
15615;DHT22;7907;51.368;6.730;2022-12-18T11:21:59;2.40;99.90
15615;DHT22;7907;51.368;6.730;2022-12-18T11:24:29;2.30;99.90
15615;DHT22;7907;51.368;6.730;2022-12-18T11:27:01;2.50;99.90
15615;DHT22;7907;51.368;6.730;2022-12-18T11:29:32;2.40;99.90
15615;DHT22;7907;51.368;6.730;2022-12-18T11:32:22;2.60;99.90
15615;DHT22;7907;51.368;6.730;2022-12-18T11:34:55;2.60;99.90
15615;DHT22;7907;51.368;6.730;2022-12-18T11:37:26;2.70;99.90
15615;DHT22;7907;51.368;6.730;2022-12-18T11:39:57;2.70;99.90
15615;DHT22;7907;51.368;6.730;2022-12-18T11:42:30;2.70;99.90
15615;DHT22;7907;51.368;6.730;2022-12-18T11:45:08;2.80;99.90
15615;DHT22;7907;51.368;6.730;2022-12-18T11:47:45;2.80;99.90
15615;DHT22;7907;51.368;6.730;2022-12-18T11:50:18;2.80;99.90
15615;DHT22;7907;51.368;6.730;2022-12-18T11:52:48;2.80;99.90
15615;DHT22;7907;51.368;6.730;2022-12-18T11:55:19;2.80;99.90
15615;DHT22;7907;51.368;6.730;2022-12-18T11:57:56;2.80;99.90
15615;DHT22;7907;51.368;6.730;2022-12-18T12:00:27;2.80;99.90
15615;DHT22;7907;51.368;6.730;2022-12-18T12:03:20;2.90;99.90
15615;DHT22;7907;51.368;6.730;2022-12-18T12:05:59;2.80;99.90
15615;DHT22;7907;51.368;6.730;2022-12-18T12:08:38;2.90;99.90
15615;DHT22;7907;51.368;6.730;2022-12-18T12:11:12;2.90;99.90
15615;DHT22;7907;51.368;6.730;2022-12-18T12:13:49;2.90;99.90
15615;DHT22;7907;51.368;6.730;2022-12-18T12:16:24;2.90;99.90
15615;DHT22;7907;51.368;6.730;2022-12-18T12:19:05;2.90;99.90
15615;DHT22;7907;51.368;6.730;2022-12-18T12:21:40;2.90;99.90
15615;DHT22;7907;51.368;6.730;2022-12-18T12:24:24;3.00;99.90
15615;DHT22;7907;51.368;6.730;2022-12-18T12:27:00;3.00;99.90
15615;DHT22;7907;51.368;6.730;2022-12-18T12:29:41;3.00;99.90
15615;DHT22;7907;51.368;6.730;2022-12-18T12:32:21;3.00;99.90
15615;DHT22;7907;51.368;6.730;2022-12-18T12:34:57;2.90;99.70
15615;DHT22;7907;51.368;6.730;2022-12-18T12:37:38;2.90;99.40
15615;DHT22;7907;51.368;6.730;2022-12-18T12:40:12;2.90;99.40
15615;DHT22;7907;51.368;6.730;2022-12-18T12:42:44;2.90;99.50
15615;DHT22;7907;51.368;6.730;2022-12-18T12:45:36;2.80;99.30
15615;DHT22;7907;51.368;6.730;2022-12-18T12:48:05;2.90;99.80
15615;DHT22;7907;51.368;6.730;2022-12-18T12:50:34;2.80;99.30
15615;DHT22;7907;51.368;6.730;2022-12-18T12:53:06;2.80;99.50
15615;DHT22;7907;51.368;6.730;2022-12-18T12:55:34;2.80;99.30
15615;DHT22;7907;51.368;6.730;2022-12-18T12:58:10;2.80;99.50
15615;DHT22;7907;51.368;6.730;2022-12-18T13:00:46;2.80;99.10
15615;DHT22;7907;51.368;6.730;2022-12-18T13:03:26;2.70;99.00
15615;DHT22;7907;51.368;6.730;2022-12-18T13:05:59;2.70;99.60
15615;DHT22;7907;51.368;6.730;2022-12-18T13:08:28;2.70;99.30
15615;DHT22;7907;51.368;6.730;2022-12-18T13:10:57;2.70;99.60
15615;DHT22;7907;51.368;6.730;2022-12-18T13:13:48;2.70;99.70
15615;DHT22;7907;51.368;6.730;2022-12-18T13:16:20;2.80;99.30
15615;DHT22;7907;51.368;6.730;2022-12-18T13:18:49;2.80;99.50
15615;DHT22;7907;51.368;6.730;2022-12-18T13:21:21;2.80;99.10
15615;DHT22;7907;51.368;6.730;2022-12-18T13:23:50;2.80;99.50
15615;DHT22;7907;51.368;6.730;2022-12-18T13:26:33;2.80;98.90
15615;DHT22;7907;51.368;6.730;2022-12-18T13:29:04;2.80;99.30
15615;DHT22;7907;51.368;6.730;2022-12-18T13:32:00;2.80;99.10
15615;DHT22;7907;51.368;6.730;2022-12-18T13:34:29;2.80;98.40
15615;DHT22;7907;51.368;6.730;2022-12-18T13:37:35;2.80;98.60
15615;DHT22;7907;51.368;6.730;2022-12-18T13:39:45;2.70;98.60
15615;DHT22;7907;51.368;6.730;2022-12-18T13:42:40;2.70;99.00
15615;DHT22;7907;51.368;6.730;2022-12-18T13:45:45;2.70;99.30
15615;DHT22;7907;51.368;6.730;2022-12-18T13:48:21;2.70;98.90
15615;DHT22;7907;51.368;6.730;2022-12-18T13:50:53;2.70;99.20
15615;DHT22;7907;51.368;6.730;2022-12-18T13:53:25;2.70;98.90
15615;DHT22;7907;51.368;6.730;2022-12-18T13:55:53;2.70;98.60
15615;DHT22;7907;51.368;6.730;2022-12-18T13:58:20;2.70;98.60
15615;DHT22;7907;51.368;6.730;2022-12-18T14:00:47;2.60;98.00
15615;DHT22;7907;51.368;6.730;2022-12-18T14:06:03;2.60;97.70
15615;DHT22;7907;51.368;6.730;2022-12-18T14:08:38;2.60;98.20
15615;DHT22;7907;51.368;6.730;2022-12-18T14:11:07;2.60;98.30
15615;DHT22;7907;51.368;6.730;2022-12-18T14:13:37;2.60;98.40
15615;DHT22;7907;51.368;6.730;2022-12-18T14:16:06;2.60;98.70
15615;DHT22;7907;51.368;6.730;2022-12-18T14:18:41;2.60;99.20
15615;DHT22;7907;51.368;6.730;2022-12-18T14:21:19;2.50;98.80
15615;DHT22;7907;51.368;6.730;2022-12-18T14:23:47;2.50;99.00
15615;DHT22;7907;51.368;6.730;2022-12-18T14:26:23;2.50;98.70
15615;DHT22;7907;51.368;6.730;2022-12-18T14:28:53;2.40;98.70
15615;DHT22;7907;51.368;6.730;2022-12-18T14:31:22;2.40;98.40
15615;DHT22;7907;51.368;6.730;2022-12-18T14:33:50;2.30;98.60
15615;DHT22;7907;51.368;6.730;2022-12-18T14:36:20;2.40;99.00
15615;DHT22;7907;51.368;6.730;2022-12-18T14:38:49;2.30;98.90
15615;DHT22;7907;51.368;6.730;2022-12-18T14:41:19;2.30;98.70
15615;DHT22;7907;51.368;6.730;2022-12-18T14:43:49;2.20;98.60
15615;DHT22;7907;51.368;6.730;2022-12-18T14:46:29;2.20;98.70
15615;DHT22;7907;51.368;6.730;2022-12-18T14:48:58;2.20;99.10
15615;DHT22;7907;51.368;6.730;2022-12-18T14:51:29;2.20;98.90
15615;DHT22;7907;51.368;6.730;2022-12-18T14:53:58;2.10;98.80
15615;DHT22;7907;51.368;6.730;2022-12-18T14:56:28;2.10;98.90
15615;DHT22;7907;51.368;6.730;2022-12-18T14:58:57;2.00;98.80
15615;DHT22;7907;51.368;6.730;2022-12-18T15:01:28;2.10;99.20
15615;DHT22;7907;51.368;6.730;2022-12-18T15:03:57;2.00;99.20
15615;DHT22;7907;51.368;6.730;2022-12-18T15:06:32;2.00;99.60
15615;DHT22;7907;51.368;6.730;2022-12-18T15:09:02;2.10;99.70
15615;DHT22;7907;51.368;6.730;2022-12-18T15:11:35;2.00;99.30
15615;DHT22;7907;51.368;6.730;2022-12-18T15:14:22;1.90;99.20
15615;DHT22;7907;51.368;6.730;2022-12-18T15:16:52;1.90;99.40
15615;DHT22;7907;51.368;6.730;2022-12-18T15:19:21;1.90;99.90
15615;DHT22;7907;51.368;6.730;2022-12-18T15:21:50;1.90;99.90
15615;DHT22;7907;51.368;6.730;2022-12-18T15:24:20;1.90;99.90
15615;DHT22;7907;51.368;6.730;2022-12-18T15:26:49;1.90;99.90
15615;DHT22;7907;51.368;6.730;2022-12-18T15:29:19;1.80;99.90
15615;DHT22;7907;51.368;6.730;2022-12-18T15:31:59;1.80;99.80
15615;DHT22;7907;51.368;6.730;2022-12-18T15:34:27;1.80;99.90
15615;DHT22;7907;51.368;6.730;2022-12-18T15:36:56;1.80;99.90
15615;DHT22;7907;51.368;6.730;2022-12-18T15:39:23;1.80;99.90
15615;DHT22;7907;51.368;6.730;2022-12-18T15:41:50;1.70;99.90
15615;DHT22;7907;51.368;6.730;2022-12-18T15:44:35;1.70;99.90
15615;DHT22;7907;51.368;6.730;2022-12-18T15:47:02;1.70;99.90
15615;DHT22;7907;51.368;6.730;2022-12-18T15:49:30;1.70;99.90
15615;DHT22;7907;51.368;6.730;2022-12-18T15:52:01;1.70;99.90
15615;DHT22;7907;51.368;6.730;2022-12-18T15:54:28;1.70;99.90
15615;DHT22;7907;51.368;6.730;2022-12-18T15:57:13;1.70;99.90
15615;DHT22;7907;51.368;6.730;2022-12-18T15:59:53;1.60;99.90
15615;DHT22;7907;51.368;6.730;2022-12-18T16:02:22;1.60;99.90
15615;DHT22;7907;51.368;6.730;2022-12-18T16:04:49;1.60;99.90
15615;DHT22;7907;51.368;6.730;2022-12-18T16:07:19;1.60;99.90
15615;DHT22;7907;51.368;6.730;2022-12-18T16:09:46;1.60;99.90
15615;DHT22;7907;51.368;6.730;2022-12-18T16:12:16;1.60;99.90
15615;DHT22;7907;51.368;6.730;2022-12-18T16:14:43;1.60;99.90
15615;DHT22;7907;51.368;6.730;2022-12-18T16:17:12;1.60;99.90